Terminal Aerodrome Forecast
Issued by NWS

Home | Current Version | Previous Version | Text Only | Print | Product List | Glossary On
Versions: 1 2 3 4 5 6 7 8 9 10 11 12 13 14 15 16 17 18 19 20 21 22
000
FTUS43 KILX 232332
TAFBMI
TAF
KBMI 232332Z 2400/2424 27012G18KT P6SM VCSH BKN060
     FM240300 29013G19KT P6SM BKN050
     FM240600 28014G21KT 6SM -SHRA BR OVC028
     FM241300 28012G23KT 5SM -SHRA BR OVC020
     FM241700 29015G25KT P6SM VCSH OVC025=

USA.gov is the U.S. government's official web portal to all federal, state and local government web resources and services.